createdAt,value
2023-03-23T00:00:16.027Z,2.60
2023-03-23T00:02:44.854Z,2.10
2023-03-23T00:05:11.529Z,2.63
2023-03-23T00:07:38.221Z,2.47
2023-03-23T00:10:05.160Z,2.30
2023-03-23T00:12:35.666Z,2.17
2023-03-23T00:15:06.550Z,2.50
2023-03-23T00:17:34.239Z,2.03
2023-03-23T00:20:02.278Z,2.40
2023-03-23T00:22:29.622Z,2.30
2023-03-23T00:24:57.042Z,2.80
2023-03-23T00:27:24.175Z,1.90
2023-03-23T00:29:53.688Z,2.17
2023-03-23T00:32:21.822Z,2.43
2023-03-23T00:34:50.565Z,2.50
2023-03-23T00:37:17.765Z,2.70
2023-03-23T00:39:47.062Z,2.40
2023-03-23T00:42:15.934Z,2.70
2023-03-23T00:44:44.762Z,2.63
2023-03-23T00:47:12.488Z,2.00
2023-03-23T00:49:39.822Z,2.10
2023-03-23T00:52:07.461Z,2.47
2023-03-23T00:54:35.240Z,2.30
2023-03-23T00:57:03.021Z,2.30
2023-03-23T00:59:30.530Z,2.13
2023-03-23T01:01:57.540Z,2.73
2023-03-23T01:04:24.252Z,2.77
2023-03-23T01:06:54.272Z,2.50
2023-03-23T01:09:22.382Z,3.03
2023-03-23T01:11:49.586Z,2.73
2023-03-23T01:14:17.290Z,2.50
2023-03-23T01:16:44.278Z,2.90
2023-03-23T01:19:11.236Z,2.80
2023-03-23T01:21:38.171Z,3.00
2023-03-23T01:24:05.213Z,2.93
2023-03-23T01:26:32.052Z,2.87
2023-03-23T01:28:59.155Z,2.70
2023-03-23T01:31:27.543Z,3.50
2023-03-23T01:33:55.635Z,2.90
2023-03-23T01:36:24.796Z,3.10
2023-03-23T01:38:51.939Z,3.00
2023-03-23T01:41:19.522Z,2.90
2023-03-23T01:44:00.213Z,2.80
2023-03-23T01:46:29.084Z,2.80
2023-03-23T01:48:59.016Z,2.47
2023-03-23T01:51:36.703Z,2.70
2023-03-23T01:54:09.620Z,2.50
2023-03-23T01:56:42.124Z,2.03
2023-03-23T01:59:10.111Z,2.37
2023-03-23T02:01:40.379Z,2.60
2023-03-23T02:04:08.640Z,2.50
2023-03-23T02:06:36.566Z,2.40
2023-03-23T02:09:14.858Z,2.40
2023-03-23T02:11:41.696Z,2.00
2023-03-23T02:14:09.601Z,2.00
2023-03-23T02:16:59.921Z,2.10
2023-03-23T02:19:30.385Z,1.90
2023-03-23T02:22:06.145Z,1.90
2023-03-23T02:24:41.471Z,2.27
2023-03-23T02:27:27.790Z,2.07
2023-03-23T02:30:00.762Z,1.87
2023-03-23T02:32:47.611Z,2.63
2023-03-23T02:35:19.704Z,2.23
2023-03-23T02:37:49.777Z,2.10
2023-03-23T02:40:19.479Z,1.80
2023-03-23T02:42:48.878Z,2.20
2023-03-23T02:45:16.798Z,2.10
2023-03-23T02:47:47.919Z,1.63
2023-03-23T02:50:17.611Z,2.10
2023-03-23T02:52:45.439Z,1.90
2023-03-23T02:55:12.968Z,2.07
2023-03-23T02:57:40.574Z,2.10
2023-03-23T03:00:14.606Z,2.00
2023-03-23T03:02:44.029Z,1.93
2023-03-23T03:05:29.867Z,1.97
2023-03-23T03:08:02.744Z,1.60
2023-03-23T03:10:51.502Z,1.90
2023-03-23T03:13:21.469Z,1.83
2023-03-23T03:16:00.722Z,1.60
2023-03-23T03:18:35.090Z,1.80
2023-03-23T03:21:14.036Z,1.87
2023-03-23T03:23:43.760Z,1.97
2023-03-23T03:26:18.445Z,1.83
2023-03-23T03:28:50.456Z,1.80
2023-03-23T03:31:22.692Z,1.97
2023-03-23T03:33:49.581Z,1.80
2023-03-23T03:36:21.541Z,1.80
2023-03-23T03:38:50.128Z,1.93
2023-03-23T03:41:17.830Z,1.90
2023-03-23T03:43:46.567Z,2.23
2023-03-23T03:46:14.125Z,2.20
2023-03-23T03:48:41.300Z,2.10
2023-03-23T03:51:08.220Z,2.60
2023-03-23T03:53:37.810Z,2.83
2023-03-23T03:56:05.732Z,2.20
2023-03-23T03:58:38.989Z,2.17
2023-03-23T04:01:12.969Z,2.50
2023-03-23T04:03:40.907Z,2.00
2023-03-23T04:06:20.413Z,2.30
2023-03-23T04:08:47.246Z,2.20
2023-03-23T04:11:35.459Z,1.93
2023-03-23T04:14:20.700Z,2.33
2023-03-23T04:16:54.468Z,2.13
2023-03-23T04:19:21.407Z,2.17
2023-03-23T04:21:50.192Z,1.90
2023-03-23T04:24:23.380Z,1.90
2023-03-23T04:27:14.368Z,2.40
2023-03-23T04:29:42.416Z,2.40
2023-03-23T04:32:33.069Z,2.40
2023-03-23T04:35:12.784Z,2.13
2023-03-23T04:38:05.928Z,2.33
2023-03-23T04:40:33.091Z,2.20
2023-03-23T04:43:13.020Z,2.00
2023-03-23T04:46:09.822Z,2.30
2023-03-23T04:48:39.477Z,2.13
2023-03-23T04:51:13.697Z,2.30
2023-03-23T04:53:42.605Z,2.10
2023-03-23T04:56:09.617Z,2.10
2023-03-23T04:58:42.780Z,2.63
2023-03-23T05:01:28.798Z,2.20
2023-03-23T05:04:17.776Z,2.17
2023-03-23T05:06:59.098Z,2.43
2023-03-23T05:09:29.711Z,1.87
2023-03-23T05:11:57.128Z,1.80
2023-03-23T05:14:24.184Z,2.47
2023-03-23T05:17:02.091Z,2.80
2023-03-23T05:19:29.289Z,2.50
2023-03-23T05:22:04.020Z,2.23
2023-03-23T05:24:43.697Z,2.20
2023-03-23T05:27:12.195Z,2.60
2023-03-23T05:29:43.835Z,2.10
2023-03-23T05:32:10.888Z,2.47
2023-03-23T05:34:39.566Z,2.20
2023-03-23T05:37:11.077Z,2.00
2023-03-23T05:39:54.372Z,1.83
2023-03-23T05:42:38.071Z,2.00
2023-03-23T05:45:14.196Z,1.97
2023-03-23T05:47:43.020Z,2.10
2023-03-23T05:50:14.808Z,2.30
2023-03-23T05:52:41.807Z,2.13
2023-03-23T05:55:11.479Z,1.80
2023-03-23T05:57:40.683Z,2.17
2023-03-23T06:00:31.258Z,1.80
2023-03-23T06:03:10.947Z,2.20
2023-03-23T06:05:47.138Z,1.83
2023-03-23T06:08:18.236Z,1.70
2023-03-23T06:10:45.894Z,2.07
2023-03-23T06:13:14.503Z,1.50
2023-03-23T06:15:46.416Z,1.90
2023-03-23T06:18:41.649Z,2.00
2023-03-23T06:21:19.788Z,1.97
2023-03-23T06:24:00.933Z,2.00
2023-03-23T06:26:35.041Z,2.10
2023-03-23T06:29:11.994Z,2.03
2023-03-23T06:31:48.778Z,1.50
2023-03-23T06:34:15.967Z,1.90
2023-03-23T06:37:06.517Z,1.87
2023-03-23T06:39:39.534Z,2.27
2023-03-23T06:42:19.448Z,1.60
2023-03-23T06:44:53.647Z,1.80
2023-03-23T06:47:20.408Z,1.60
2023-03-23T06:49:48.488Z,2.07
2023-03-23T06:52:26.974Z,1.43
2023-03-23T06:54:54.863Z,1.40
2023-03-23T06:57:22.375Z,1.60
2023-03-23T06:59:51.767Z,1.40
2023-03-23T07:02:19.632Z,1.73
2023-03-23T07:04:50.317Z,1.60
2023-03-23T07:07:21.338Z,1.33
2023-03-23T07:10:23.176Z,1.20
2023-03-23T07:12:50.042Z,1.30
2023-03-23T07:15:18.403Z,1.40
2023-03-23T07:17:49.420Z,1.23
2023-03-23T07:20:32.677Z,1.50
2023-03-23T07:22:59.652Z,1.50
2023-03-23T07:25:55.536Z,1.60
2023-03-23T07:28:29.783Z,1.67
2023-03-23T07:31:04.338Z,1.30
2023-03-23T07:33:32.770Z,1.60
2023-03-23T07:36:01.701Z,1.40
2023-03-23T07:38:29.877Z,1.30
2023-03-23T07:40:59.493Z,1.50
2023-03-23T07:43:27.324Z,1.33
2023-03-23T07:46:12.701Z,1.40
2023-03-23T07:48:53.576Z,1.20
2023-03-23T07:51:24.000Z,1.40
2023-03-23T07:53:51.621Z,1.33
2023-03-23T07:56:40.944Z,1.70
2023-03-23T07:59:13.622Z,1.60
2023-03-23T08:01:42.471Z,1.43
2023-03-23T08:04:41.659Z,1.50
2023-03-23T08:07:21.089Z,1.33
2023-03-23T08:10:03.449Z,1.60
2023-03-23T08:13:02.970Z,1.20
2023-03-23T08:15:48.338Z,1.40
2023-03-23T08:18:41.280Z,1.10
2023-03-23T08:21:27.799Z,1.40
2023-03-23T08:24:13.035Z,1.40
2023-03-23T08:26:51.171Z,1.77
2023-03-23T08:29:47.114Z,1.50
2023-03-23T08:32:49.480Z,1.73
2023-03-23T08:35:30.446Z,1.27
2023-03-23T08:38:15.807Z,1.93
2023-03-23T08:41:16.315Z,1.23
2023-03-23T08:43:55.411Z,2.17
2023-03-23T08:46:40.542Z,1.47
2023-03-23T08:49:18.669Z,1.77
2023-03-23T08:52:15.004Z,1.40
2023-03-23T08:54:55.833Z,1.73
2023-03-23T08:57:32.673Z,1.50
2023-03-23T09:00:16.519Z,1.90
2023-03-23T09:03:09.447Z,1.40
2023-03-23T09:05:47.746Z,1.40
2023-03-23T09:08:18.862Z,1.30
2023-03-23T09:10:45.597Z,1.00
2023-03-23T09:13:12.452Z,1.70
2023-03-23T09:18:08.248Z,1.30
2023-03-23T09:20:35.258Z,1.10
2023-03-23T09:23:01.988Z,1.27
2023-03-23T09:25:28.779Z,1.30
2023-03-23T09:27:57.480Z,1.10
2023-03-23T09:30:27.073Z,1.47
2023-03-23T09:32:54.167Z,1.30
2023-03-23T09:35:23.707Z,1.53
2023-03-23T09:37:52.531Z,1.13
2023-03-23T09:40:31.515Z,1.10
2023-03-23T09:42:58.268Z,0.90
2023-03-23T09:45:25.043Z,1.43
2023-03-23T09:47:57.610Z,1.10
2023-03-23T09:50:28.177Z,1.17
2023-03-23T09:52:59.869Z,1.10
2023-03-23T09:55:26.824Z,1.10
2023-03-23T09:58:00.337Z,0.90
2023-03-23T10:00:35.885Z,1.27
2023-03-23T10:03:06.981Z,1.10
2023-03-23T10:05:35.748Z,1.00
2023-03-23T10:08:03.781Z,1.27
2023-03-23T10:10:40.493Z,0.77
2023-03-23T10:13:26.231Z,0.87
2023-03-23T10:15:53.425Z,0.90
2023-03-23T10:18:28.006Z,1.00
2023-03-23T10:20:56.738Z,0.80
2023-03-23T10:23:45.693Z,1.10
2023-03-23T10:26:33.178Z,0.97
2023-03-23T10:29:11.597Z,0.97
2023-03-23T10:31:40.110Z,0.90
2023-03-23T10:34:12.185Z,0.90
2023-03-23T10:36:41.531Z,0.83
2023-03-23T10:39:10.693Z,1.07
2023-03-23T10:41:37.743Z,1.00
2023-03-23T10:44:19.613Z,1.20
2023-03-23T10:46:50.113Z,1.40
2023-03-23T10:49:20.809Z,1.10
2023-03-23T10:51:58.799Z,1.10
2023-03-23T10:54:33.308Z,1.40
2023-03-23T10:57:02.511Z,0.93
2023-03-23T10:59:33.597Z,1.30
2023-03-23T11:02:04.527Z,1.00
2023-03-23T11:04:32.349Z,0.70
2023-03-23T11:07:02.117Z,0.80
2023-03-23T11:09:36.761Z,1.00
2023-03-23T11:12:04.131Z,0.70
2023-03-23T11:14:35.670Z,0.77
2023-03-23T11:17:13.919Z,1.00
2023-03-23T11:19:42.425Z,0.97
2023-03-23T11:22:14.479Z,1.10
2023-03-23T11:24:45.712Z,1.07
2023-03-23T11:27:13.526Z,1.10
2023-03-23T11:29:55.075Z,1.13
2023-03-23T11:32:30.068Z,1.50
2023-03-23T11:35:13.788Z,2.00
2023-03-23T11:37:44.483Z,1.50
2023-03-23T11:40:11.930Z,1.00
2023-03-23T11:42:39.940Z,1.13
2023-03-23T11:45:18.476Z,1.77
2023-03-23T11:47:58.099Z,1.23
2023-03-23T11:50:30.549Z,1.00
2023-03-23T11:53:06.422Z,1.30
2023-03-23T11:55:35.854Z,1.00
2023-03-23T11:58:06.264Z,1.37
2023-03-23T12:00:33.263Z,1.07
2023-03-23T12:03:19.032Z,1.10
2023-03-23T12:05:52.067Z,1.60
2023-03-23T12:08:32.055Z,1.37
2023-03-23T12:11:24.640Z,1.30
2023-03-23T12:13:58.684Z,1.63
2023-03-23T12:16:32.195Z,1.37
2023-03-23T12:19:05.080Z,1.53
2023-03-23T12:21:52.091Z,1.30
2023-03-23T12:24:26.965Z,1.17
2023-03-23T12:27:01.518Z,1.23
2023-03-23T12:29:37.203Z,1.00
2023-03-23T12:32:07.024Z,1.10
2023-03-23T12:34:47.083Z,1.20
2023-03-23T12:37:22.661Z,1.40
2023-03-23T12:39:55.241Z,1.50
2023-03-23T12:42:28.828Z,1.17
2023-03-23T12:45:03.143Z,1.20
2023-03-23T12:47:36.591Z,1.40
2023-03-23T12:50:09.312Z,1.30
2023-03-23T12:52:59.142Z,1.30
2023-03-23T12:55:34.242Z,1.40
2023-03-23T12:58:03.771Z,1.30
2023-03-23T13:00:35.396Z,1.33
2023-03-23T13:03:05.100Z,1.30
2023-03-23T13:05:37.413Z,1.30
2023-03-23T13:08:12.017Z,1.23
2023-03-23T13:10:48.278Z,1.10
2023-03-23T13:13:26.071Z,1.17
2023-03-23T13:15:58.944Z,1.20
2023-03-23T13:18:41.690Z,1.40
2023-03-23T13:21:15.500Z,1.57
2023-03-23T13:23:45.078Z,1.70
2023-03-23T13:26:15.688Z,1.70
2023-03-23T13:29:12.954Z,1.93
2023-03-23T13:31:41.012Z,1.90
2023-03-23T13:34:20.709Z,2.10
2023-03-23T13:36:54.169Z,2.73
2023-03-23T13:39:25.361Z,1.80
2023-03-23T13:42:10.477Z,2.13
2023-03-23T13:44:49.506Z,1.80
2023-03-23T13:47:22.311Z,1.87
2023-03-23T13:49:52.189Z,1.70
2023-03-23T13:52:37.484Z,2.10
2023-03-23T13:55:16.753Z,1.90
2023-03-23T13:57:49.504Z,1.83
2023-03-23T14:00:31.231Z,1.83
2023-03-23T14:03:12.180Z,2.03
2023-03-23T14:05:40.984Z,1.90
2023-03-23T14:08:11.033Z,2.07
2023-03-23T14:10:43.746Z,1.97
2023-03-23T14:13:33.618Z,1.50
2023-03-23T14:16:00.355Z,1.80
2023-03-23T14:18:28.858Z,1.90
2023-03-23T14:20:57.035Z,2.00
2023-03-23T14:23:24.287Z,1.70
2023-03-23T14:25:59.147Z,1.63
2023-03-23T14:28:28.480Z,1.77
2023-03-23T14:30:55.627Z,1.70
2023-03-23T14:33:22.413Z,1.70
2023-03-23T14:35:50.422Z,1.60
2023-03-23T14:38:19.498Z,2.00
2023-03-23T14:40:46.841Z,2.07
2023-03-23T14:43:16.788Z,1.77
2023-03-23T14:45:44.136Z,1.73
2023-03-23T14:48:14.117Z,1.90
2023-03-23T14:50:42.077Z,1.93
2023-03-23T14:53:18.195Z,2.23
2023-03-23T14:55:47.138Z,2.10
2023-03-23T14:58:15.274Z,1.50
2023-03-23T15:00:47.719Z,1.70
2023-03-23T15:03:17.331Z,2.00
2023-03-23T15:05:49.710Z,1.83
2023-03-23T15:08:19.828Z,1.70
2023-03-23T15:10:57.560Z,1.40
2023-03-23T15:13:24.335Z,1.70
2023-03-23T15:15:51.727Z,1.40
2023-03-23T15:18:27.312Z,1.70
2023-03-23T15:20:54.179Z,1.90
2023-03-23T15:23:28.791Z,1.83
2023-03-23T15:25:56.832Z,1.57
2023-03-23T15:28:29.637Z,1.70
2023-03-23T15:30:59.077Z,1.30
2023-03-23T15:33:40.541Z,1.93
2023-03-23T15:36:16.198Z,2.20
2023-03-23T15:38:46.857Z,1.70
2023-03-23T15:41:27.143Z,1.60
2023-03-23T15:43:59.873Z,1.50
2023-03-23T15:46:28.288Z,1.80
2023-03-23T15:49:00.783Z,1.50
2023-03-23T15:51:29.543Z,1.67
2023-03-23T15:54:00.102Z,1.80
2023-03-23T15:56:27.166Z,1.50
2023-03-23T15:58:54.378Z,1.93
2023-03-23T16:01:23.209Z,1.70
2023-03-23T16:03:54.780Z,1.67
2023-03-23T16:06:24.482Z,1.77
2023-03-23T16:08:56.733Z,1.70
2023-03-23T16:11:25.203Z,1.80
2023-03-23T16:13:52.063Z,2.00
2023-03-23T16:16:21.348Z,1.73
2023-03-23T16:18:48.237Z,1.80
2023-03-23T16:21:15.024Z,2.00
2023-03-23T16:23:44.572Z,1.80
2023-03-23T16:26:11.415Z,1.60
2023-03-23T16:28:39.171Z,1.90
2023-03-23T16:31:06.206Z,1.63
2023-03-23T16:33:33.055Z,1.90
2023-03-23T16:35:59.916Z,1.77
2023-03-23T16:38:27.154Z,1.80
2023-03-23T16:40:53.973Z,1.50
2023-03-23T16:43:20.999Z,1.70
2023-03-23T16:45:48.260Z,1.77
2023-03-23T16:48:16.791Z,1.60
2023-03-23T16:50:44.512Z,2.03
2023-03-23T16:53:11.995Z,2.30
2023-03-23T16:55:39.436Z,2.00
2023-03-23T16:58:16.562Z,1.80
2023-03-23T17:00:45.727Z,1.63
2023-03-23T17:03:13.542Z,1.70
2023-03-23T17:05:41.158Z,1.77
2023-03-23T17:08:08.541Z,1.70
2023-03-23T17:10:37.650Z,1.80
2023-03-23T17:13:05.050Z,1.70
2023-03-23T17:15:31.905Z,1.93
2023-03-23T17:17:58.723Z,2.27
2023-03-23T17:20:25.914Z,2.20
2023-03-23T17:22:52.668Z,1.83
2023-03-23T17:25:19.462Z,1.60
2023-03-23T17:27:46.673Z,1.70
2023-03-23T17:30:13.712Z,1.80
2023-03-23T17:32:40.711Z,1.67
2023-03-23T17:35:07.627Z,2.30
2023-03-23T17:37:34.687Z,1.87
2023-03-23T17:40:01.696Z,1.73
2023-03-23T17:42:29.662Z,2.07
2023-03-23T17:44:56.484Z,1.87
2023-03-23T17:47:24.258Z,1.90
2023-03-23T17:49:51.713Z,1.90
2023-03-23T17:52:18.886Z,2.77
2023-03-23T17:54:45.648Z,2.70
2023-03-23T17:57:12.445Z,2.33
2023-03-23T17:59:39.591Z,2.27
2023-03-23T18:02:06.892Z,2.70
2023-03-23T18:04:33.694Z,2.10
2023-03-23T18:07:00.644Z,2.07
2023-03-23T18:09:27.577Z,2.03
2023-03-23T18:11:54.430Z,1.97
2023-03-23T18:14:21.628Z,2.30
2023-03-23T18:16:48.516Z,2.30
2023-03-23T18:19:15.526Z,2.30
2023-03-23T18:21:45.333Z,2.70
2023-03-23T18:24:12.759Z,1.90
2023-03-23T18:26:39.668Z,2.03
2023-03-23T18:29:06.436Z,1.80
2023-03-23T18:31:33.343Z,2.00
2023-03-23T18:34:00.317Z,2.00
2023-03-23T18:36:27.411Z,3.30
2023-03-23T18:38:55.677Z,3.00
2023-03-23T18:41:22.571Z,2.50
2023-03-23T18:43:49.294Z,2.00
2023-03-23T18:46:16.548Z,2.27
2023-03-23T18:48:43.482Z,2.23
2023-03-23T18:51:10.431Z,2.30
2023-03-23T18:53:37.179Z,2.10
2023-03-23T18:56:08.613Z,1.93
2023-03-23T18:58:35.458Z,2.60
2023-03-23T19:01:03.408Z,2.00
2023-03-23T19:03:31.274Z,2.10
2023-03-23T19:05:59.767Z,1.70
2023-03-23T19:08:27.601Z,1.90
2023-03-23T19:11:02.754Z,1.60
2023-03-23T19:13:30.298Z,1.63
2023-03-23T19:15:57.152Z,1.97
2023-03-23T19:18:24.133Z,2.33
2023-03-23T19:23:22.024Z,2.00
2023-03-23T19:25:49.084Z,1.93
2023-03-23T19:30:46.908Z,2.00
2023-03-23T19:33:14.229Z,1.70
2023-03-23T19:35:41.159Z,2.20
2023-03-23T19:38:08.352Z,2.40
2023-03-23T19:40:42.116Z,2.00
2023-03-23T19:43:09.926Z,2.07
2023-03-23T19:45:37.157Z,2.23
2023-03-23T19:48:04.242Z,1.93
2023-03-23T19:50:31.915Z,2.00
2023-03-23T19:53:00.481Z,1.80
2023-03-23T19:55:27.611Z,2.10
2023-03-23T19:57:55.108Z,2.10
2023-03-23T20:00:24.127Z,2.00
2023-03-23T20:02:52.030Z,2.00
2023-03-23T20:05:18.982Z,2.10
2023-03-23T20:07:51.408Z,2.30
2023-03-23T20:10:19.188Z,1.90
2023-03-23T20:12:46.845Z,1.70
2023-03-23T20:15:13.788Z,1.90
2023-03-23T20:17:41.376Z,1.83
2023-03-23T20:20:10.336Z,1.80
2023-03-23T20:22:38.030Z,1.63
2023-03-23T20:25:07.949Z,1.40
2023-03-23T20:27:35.409Z,1.73
2023-03-23T20:30:04.341Z,1.73
2023-03-23T20:32:33.340Z,1.87
2023-03-23T20:35:09.413Z,1.83
2023-03-23T20:37:38.423Z,1.70
2023-03-23T20:40:07.557Z,1.90
2023-03-23T20:42:35.147Z,1.70
2023-03-23T20:45:01.933Z,1.80
2023-03-23T20:47:29.214Z,1.90
2023-03-23T20:49:56.233Z,1.50
2023-03-23T20:52:24.077Z,1.80
2023-03-23T20:54:51.057Z,1.47
2023-03-23T20:57:18.088Z,1.97
2023-03-23T20:59:44.857Z,2.10
2023-03-23T21:02:13.524Z,1.70
2023-03-23T21:04:42.559Z,1.80
2023-03-23T21:07:10.187Z,1.40
2023-03-23T21:09:37.625Z,1.67
2023-03-23T21:12:09.605Z,1.20
2023-03-23T21:14:38.255Z,1.60
2023-03-23T21:17:06.294Z,2.00
2023-03-23T21:19:34.164Z,1.13
2023-03-23T21:22:01.167Z,1.43
2023-03-23T21:24:29.308Z,1.83
2023-03-23T21:26:57.871Z,1.37
2023-03-23T21:29:24.731Z,1.30
2023-03-23T21:32:01.050Z,1.40
2023-03-23T21:34:34.547Z,1.67
2023-03-23T21:37:01.456Z,1.60
2023-03-23T21:39:28.770Z,2.03
2023-03-23T21:41:55.582Z,1.70
2023-03-23T21:44:22.385Z,1.40
2023-03-23T21:46:52.418Z,1.97
2023-03-23T21:49:20.017Z,1.70
2023-03-23T21:51:48.969Z,1.60
2023-03-23T21:54:15.703Z,1.77
2023-03-23T21:56:42.945Z,1.33
2023-03-23T21:59:09.756Z,1.70
2023-03-23T22:01:37.286Z,1.60
2023-03-23T22:04:05.418Z,1.50
2023-03-23T22:06:34.567Z,1.50
2023-03-23T22:09:02.384Z,1.70
2023-03-23T22:11:31.341Z,1.60
2023-03-23T22:13:58.540Z,2.10
2023-03-23T22:16:25.847Z,1.50
2023-03-23T22:18:53.441Z,1.30
2023-03-23T22:21:22.208Z,1.50
2023-03-23T22:23:49.170Z,1.80
2023-03-23T22:26:16.702Z,1.93
2023-03-23T22:28:43.970Z,1.50
2023-03-23T22:31:18.792Z,1.30
2023-03-23T22:33:46.817Z,1.50
2023-03-23T22:36:13.608Z,1.50
2023-03-23T22:38:42.135Z,1.60
2023-03-23T22:41:11.003Z,1.50
2023-03-23T22:43:37.918Z,1.50
2023-03-23T22:46:05.823Z,1.53
2023-03-23T22:48:32.768Z,1.60
2023-03-23T22:50:59.891Z,1.80
2023-03-23T22:53:26.688Z,2.07
2023-03-23T22:55:54.911Z,1.37
2023-03-23T22:58:21.792Z,1.60
2023-03-23T23:00:49.732Z,1.63
2023-03-23T23:03:17.026Z,1.50
2023-03-23T23:05:45.468Z,1.30
2023-03-23T23:08:15.212Z,1.70
2023-03-23T23:10:44.798Z,1.90
2023-03-23T23:13:12.622Z,1.73
2023-03-23T23:15:43.852Z,1.70
2023-03-23T23:18:11.262Z,1.57
2023-03-23T23:20:38.774Z,1.70
2023-03-23T23:23:05.871Z,1.47
2023-03-23T23:25:32.911Z,1.73
2023-03-23T23:28:00.630Z,1.30
2023-03-23T23:30:28.263Z,1.73
2023-03-23T23:32:55.243Z,1.40
2023-03-23T23:35:22.667Z,1.60
2023-03-23T23:37:49.961Z,1.30
2023-03-23T23:40:17.273Z,1.20
2023-03-23T23:42:45.219Z,1.60
2023-03-23T23:45:12.405Z,1.33
2023-03-23T23:47:40.400Z,1.80
2023-03-23T23:50:07.634Z,1.60
2023-03-23T23:52:35.028Z,1.70
2023-03-23T23:55:01.899Z,1.60
2023-03-23T23:57:28.695Z,1.50
2023-03-23T23:59:56.271Z,1.80
